FIMR

Sir Charles Gaetan Duval Airport

Port Mathurin, Mauritius
TAF FIMR 212330Z 2200/2218 08010KT 9999 FEW018 BECMG 2204/2206 08010G20KT PROB30 TEMPO 2210/2218 8000 -SHRA BKN016
Issued Valid From Valid To
Jan-21 @ 23:30 UTC
(38 minutes ago)
Jan-22 @ 00:00 UTC
(8 minutes ago)
Jan-22 @ 18:00 UTC
(in 18 hours)
Jan-22 @ 00:00 to Jan-22 @ 04:00
TAF FIMR 212330Z 2200/2218 08010KT 9999 FEW018
Wind Visibility Clouds
80° at 10 knots 10,000+ meters
  • Few at 1,800' AGL
Becoming Jan-22 @ 04:00 to Jan-22 @ 18:00
BECMG 2204/2206 08010G20KT
Wind Visibility Clouds
80° at 10 knots
 Gusting to 20 knots
10,000+ meters
  • Few at 1,800' AGL
Temporary  (Probability 30%) Jan-22 @ 10:00 to Jan-22 @ 18:00
PROB30 TEMPO 2210/2218 8000 -SHRA BKN016
Visibility Clouds Conditions
7,998 meters
  • Broken at 1,600' AGL
  • Light Rain
TAF FIMR 212330Z 2200/2218 08010KT 9999 FEW018 BECMG 2204/2206 08010G20KT PROB30 TEMPO 2210/2218 8000 -SHRA BKN016
Issued Jan-21 @ 23:30 UTC
(38 minutes ago)
Valid From Jan-22 @ 00:00 UTC
(8 minutes ago)
Valid To Jan-22 @ 18:00 UTC
(in 18 hours)
Jan-22 @ 00:00 - Jan-22 @ 04:00
Wind Visibility
80° at 10 knots 10,000+ meters
Clouds
  • Few at 1,800' AGL
Becoming Jan-22 @ 04:00 - Jan-22 @ 18:00
Wind Visibility
80° at 10 knots
 Gusting to 20 knots
10,000+ meters
Clouds
  • Few at 1,800' AGL
Probability 30% Temporary Jan-22 @ 10:00 - Jan-22 @ 18:00
Clouds
  • Broken at 1,600' AGL
Conditions
  • Light Rain